Time;durP1;ratioP1;P1;durP2;ratioP2;P2;SDS_P1;SDS_P2;PMS_P1;PMS_P2;Temp;Humidity;BMP_temperature;BMP_pressure;BME280_temperature;BME280_humidity;BME280_pressure;Samples;Min_cycle;Max_cycle;Signal;HPM_P1;HPM_P2
2023/09/06 00:00:51;;;;;;;;;;;;;;;;;;4971260;28;92742;-69
2023/09/06 00:03:17;;;;;;;;;;;;;;;;;;4974665;28;93662;-66
2023/09/06 00:05:42;;;;;;;;;;;;;;;;;;4985352;28;93405;-65
2023/09/06 00:08:12;;;;;;;;;;;;;;;;;;4978788;28;92426;-68
2023/09/06 00:10:38;;;;;;;;;;;;;;;;;;4982313;28;92405;-72
2023/09/06 00:13:04;;;;;;;;;;;;;;;;;;4982431;28;93473;-66
2023/09/06 00:15:29;;;;;;;;;;;;;;;;;;4980701;28;92616;-73
2023/09/06 00:17:54;;;;;;;;;;;;;;;;;;4978609;28;93963;-72
2023/09/06 00:20:24;;;;;;;;;;;;;;;;;;4977341;28;93258;-65
2023/09/06 00:22:59;;;;;;;;;;;;;;;;;;4978501;28;92481;-67
2023/09/06 00:25:25;;;;;;;;;;;;;;;;;;4979094;28;92769;-72
2023/09/06 00:27:50;;;;;;;;;;;;;;;;;;4984915;28;95933;-65
2023/09/06 00:30:18;;;;;;;;;;;;;;;;;;4975640;28;95533;-69
2023/09/06 00:32:43;;;;;;;;;;;;;;;;;;4974573;28;93646;-73
2023/09/06 00:35:08;;;;;;;;;;;;;;;;;;4978178;28;92589;-67
2023/09/06 00:37:36;;;;;;;;;;;;;;;;;;4979914;28;93499;-67
2023/09/06 00:40:11;;;;;;;;;;;;;;;;;;4977608;28;94420;-72
2023/09/06 00:42:36;;;;;;;;;;;;;;;;;;4975990;28;93735;-70
2023/09/06 00:45:01;;;;;;;;;;;;;;;;;;4981305;28;92838;-67
2023/09/06 00:47:27;;;;;;;;;;;;;;;;;;4980713;28;92289;-70
2023/09/06 00:49:52;;;;;;;;;;;;;;;;;;4973266;28;93297;-68
2023/09/06 00:52:17;;;;;;;;;;;;;;;;;;4978123;28;93184;-69
2023/09/06 00:54:42;;;;;;;;;;;;;;;;;;4977922;28;93923;-64
2023/09/06 00:57:08;;;;;;;;;;;;;;;;;;4974568;28;93050;-71
2023/09/06 00:59:33;;;;;;;;;;;;;;;;;;4977418;28;92124;-71
2023/09/06 01:01:59;;;;;;;;;;;;;;;;;;4976748;28;92703;-72
2023/09/06 01:04:25;;;;;;;;;;;;;;;;;;4978462;28;92696;-70
2023/09/06 01:06:57;;;;;;;;;;;;;;;;;;4977988;28;93701;-71
2023/09/06 01:09:23;;;;;;;;;;;;;;;;;;4978611;28;93122;-72
2023/09/06 01:11:48;;;;;;;;;;;;;;;;;;4979780;28;92645;-67
2023/09/06 01:14:13;;;;;;;;;;;;;;;;;;4981540;28;93868;-66
2023/09/06 01:16:39;;;;;;;;;;;;;;;;;;4976365;28;94520;-65
2023/09/06 01:19:05;;;;;;;;;;;;;;;;;;4975075;28;93704;-65
2023/09/06 01:21:51;;;;;;;;;;;;;;;;;;4980194;28;93907;-65
2023/09/06 01:24:16;;;;;;;;;;;;;;;;;;4958272;28;91705;-71
2023/09/06 01:26:42;;;;;;;;;;;;;;;;;;4981950;28;92690;-73
2023/09/06 01:29:07;;;;;;;;;;;;;;;;;;4977867;28;92857;-72
2023/09/06 01:31:32;;;;;;;;;;;;;;;;;;4977144;28;95011;-73
2023/09/06 01:33:58;;;;;;;;;;;;;;;;;;4980929;28;93276;-72
2023/09/06 01:36:23;;;;;;;;;;;;;;;;;;4976654;28;93316;-67
2023/09/06 01:38:51;;;;;;;;;;;;;;;;;;4974493;28;92970;-68
2023/09/06 01:41:16;;;;;;;;;;;;;;;;;;4979412;28;92986;-72
2023/09/06 01:43:42;;;;;;;;;;;;;;;;;;4976503;28;93477;-64
2023/09/06 01:46:07;;;;;;;;;;;;;;;;;;4972679;28;93101;-65
2023/09/06 01:48:32;;;;;;;;;;;;;;;;;;4977638;28;92438;-65
2023/09/06 01:50:58;;;;;;;;;;;;;;;;;;4977589;28;92774;-65
2023/09/06 01:53:23;;;;;;;;;;;;;;;;;;4980800;28;92519;-65
2023/09/06 01:55:48;;;;;;;;;;;;;;;;;;4975101;28;93689;-65
2023/09/06 01:58:14;;;;;;;;;;;;;;;;;;4981490;28;92363;-66
2023/09/06 02:00:39;;;;;;;;;;;;;;;;;;4976455;28;93592;-65
2023/09/06 02:03:06;;;;;;;;;;;;;;;;;;4975747;28;92947;-65
2023/09/06 02:05:32;;;;;;;;;;;;;;;;;;4980153;28;92279;-65
2023/09/06 02:07:57;;;;;;;;;;;;;;;;;;4976973;28;92739;-68
2023/09/06 02:10:23;;;;;;;;;;;;;;;;;;4976082;28;93825;-68
2023/09/06 02:12:48;;;;;;;;;;;;;;;;;;4980561;28;92053;-66
2023/09/06 02:15:14;;;;;;;;;;;;;;;;;;4978442;28;92212;-67
2023/09/06 02:17:42;;;;;;;;;;;;;;;;;;4974122;28;93053;-65
2023/09/06 02:20:17;;;;;;;;;;;;;;;;;;4973525;28;93450;-67
2023/09/06 02:22:52;;;;;;;;;;;;;;;;;;4976807;28;93118;-65
2023/09/06 02:25:21;;;;;;;;;;;;;;;;;;4980253;28;92581;-67
2023/09/06 02:27:47;;;;;;;;;;;;;;;;;;4974562;28;92884;-64
2023/09/06 02:30:12;;;;;;;;;;;;;;;;;;4976957;28;92712;-64
2023/09/06 02:32:37;;;;;;;;;;;;;;;;;;4978752;28;93020;-66
2023/09/06 02:35:03;;;;;;;;;;;;;;;;;;4980651;28;93033;-65
2023/09/06 02:37:28;;;;;;;;;;;;;;;;;;4982026;28;92271;-70
2023/09/06 02:39:53;;;;;;;;;;;;;;;;;;4976368;28;92408;-67
2023/09/06 02:42:22;;;;;;;;;;;;;;;;;;4980110;28;92859;-66
2023/09/06 02:44:47;;;;;;;;;;;;;;;;;;4978659;28;93175;-69
2023/09/06 02:47:15;;;;;;;;;;;;;;;;;;4974720;28;93142;-72
2023/09/06 02:49:43;;;;;;;;;;;;;;;;;;4978590;28;92547;-73
2023/09/06 02:52:13;;;;;;;;;;;;;;;;;;4975203;28;92471;-71
2023/09/06 02:54:42;;;;;;;;;;;;;;;;;;4973124;28;93501;-68
2023/09/06 02:57:10;;;;;;;;;;;;;;;;;;4976359;28;94277;-70
2023/09/06 02:59:35;;;;;;;;;;;;;;;;;;4975127;28;93768;-72
2023/09/06 03:02:05;;;;;;;;;;;;;;;;;;4978647;28;92816;-70
2023/09/06 03:04:33;;;;;;;;;;;;;;;;;;4973934;28;92845;-72
2023/09/06 03:07:02;;;;;;;;;;;;;;;;;;4974707;28;93611;-72
2023/09/06 03:09:29;;;;;;;;;;;;;;;;;;4969570;28;94946;-72
2023/09/06 03:11:54;;;;;;;;;;;;;;;;;;4978648;28;92586;-71
2023/09/06 03:14:21;;;;;;;;;;;;;;;;;;4975611;28;94923;-68
2023/09/06 03:16:53;;;;;;;;;;;;;;;;;;4974146;28;92839;-70
2023/09/06 03:19:18;;;;;;;;;;;;;;;;;;4978043;28;93065;-72
2023/09/06 03:21:44;;;;;;;;;;;;;;;;;;4973187;28;93730;-68
2023/09/06 03:24:12;;;;;;;;;;;;;;;;;;4977722;28;93997;-72
2023/09/06 03:26:43;;;;;;;;;;;;;;;;;;4973019;28;93712;-65
2023/09/06 03:29:10;;;;;;;;;;;;;;;;;;4973920;28;94118;-65
2023/09/06 03:31:42;;;;;;;;;;;;;;;;;;4982684;28;93369;-65
2023/09/06 03:34:07;;;;;;;;;;;;;;;;;;4980351;28;93792;-67
2023/09/06 03:36:35;;;;;;;;;;;;;;;;;;4976940;28;94345;-65
2023/09/06 03:39:00;;;;;;;;;;;;;;;;;;4975731;28;92540;-69
2023/09/06 03:41:26;;;;;;;;;;;;;;;;;;4985385;28;93757;-71
2023/09/06 03:43:53;;;;;;;;;;;;;;;;;;4976839;28;93459;-72
2023/09/06 03:46:20;;;;;;;;;;;;;;;;;;4982814;28;93613;-66
2023/09/06 03:48:46;;;;;;;;;;;;;;;;;;4974008;28;93737;-67
2023/09/06 03:51:13;;;;;;;;;;;;;;;;;;4978631;28;91505;-72
2023/09/06 03:53:38;;;;;;;;;;;;;;;;;;4980562;28;92663;-65
2023/09/06 03:56:05;;;;;;;;;;;;;;;;;;4979015;28;94331;-65
2023/09/06 03:58:30;;;;;;;;;;;;;;;;;;4977850;28;93837;-67
2023/09/06 04:00:55;;;;;;;;;;;;;;;;;;4976411;28;92850;-67
2023/09/06 04:03:22;;;;;;;;;;;;;;;;;;4982770;28;93394;-70
2023/09/06 04:05:48;;;;;;;;;;;;;;;;;;4979718;28;93569;-69
2023/09/06 04:08:17;;;;;;;;;;;;;;;;;;4980630;28;92847;-68
2023/09/06 04:10:44;;;;;;;;;;;;;;;;;;4975318;28;93051;-73
2023/09/06 04:13:10;;;;;;;;;;;;;;;;;;4979498;28;93138;-67
2023/09/06 04:15:35;;;;;;;;;;;;;;;;;;4980597;28;91994;-67
2023/09/06 04:18:02;;;;;;;;;;;;;;;;;;4982602;28;92698;-67
2023/09/06 04:20:31;;;;;;;;;;;;;;;;;;4977955;28;94419;-72
2023/09/06 04:22:57;;;;;;;;;;;;;;;;;;4971866;28;93648;-70
2023/09/06 04:25:23;;;;;;;;;;;;;;;;;;4985061;28;92409;-72
2023/09/06 04:27:48;;;;;;;;;;;;;;;;;;4979101;28;93471;-68
2023/09/06 04:30:15;;;;;;;;;;;;;;;;;;4978660;28;93608;-72
2023/09/06 04:32:41;;;;;;;;;;;;;;;;;;4979549;28;93688;-67
2023/09/06 04:35:06;;;;;;;;;;;;;;;;;;4974049;28;93631;-70
2023/09/06 04:37:32;;;;;;;;;;;;;;;;;;4972345;28;93577;-67
2023/09/06 04:39:57;;;;;;;;;;;;;;;;;;4976822;28;92426;-65
2023/09/06 04:42:23;;;;;;;;;;;;;;;;;;4981922;28;92670;-70
2023/09/06 04:44:48;;;;;;;;;;;;;;;;;;4976856;28;92697;-69
2023/09/06 04:47:17;;;;;;;;;;;;;;;;;;4977908;28;94248;-70
2023/09/06 04:49:45;;;;;;;;;;;;;;;;;;4974684;28;92938;-72
2023/09/06 04:52:10;;;;;;;;;;;;;;;;;;4974150;28;92884;-71
2023/09/06 04:54:36;;;;;;;;;;;;;;;;;;4974913;28;94502;-71
2023/09/06 04:57:01;;;;;;;;;;;;;;;;;;4969393;28;93624;-66
2023/09/06 04:59:26;;;;;;;;;;;;;;;;;;4974446;28;92576;-65
2023/09/06 05:01:51;;;;;;;;;;;;;;;;;;4976684;28;93135;-67
2023/09/06 05:04:19;;;;;;;;;;;;;;;;;;4975242;28;92187;-69
2023/09/06 05:06:44;;;;;;;;;;;;;;;;;;4975457;28;92683;-65
2023/09/06 05:09:10;;;;;;;;;;;;;;;;;;4977499;28;93169;-68
2023/09/06 05:11:36;;;;;;;;;;;;;;;;;;4976354;28;95895;-69
2023/09/06 05:14:01;;;;;;;;;;;;;;;;;;4973986;28;93223;-69
2023/09/06 05:16:26;;;;;;;;;;;;;;;;;;4972660;28;92656;-68
2023/09/06 05:18:52;;;;;;;;;;;;;;;;;;4977268;28;93880;-71
2023/09/06 05:21:18;;;;;;;;;;;;;;;;;;4972165;28;93931;-72
2023/09/06 05:23:43;;;;;;;;;;;;;;;;;;4971041;28;92634;-69
2023/09/06 05:26:10;;;;;;;;;;;;;;;;;;4977184;28;92823;-69
2023/09/06 05:28:35;;;;;;;;;;;;;;;;;;4978581;28;91937;-70
2023/09/06 05:31:01;;;;;;;;;;;;;;;;;;4975204;28;92884;-73
2023/09/06 05:33:26;;;;;;;;;;;;;;;;;;4971542;28;93498;-67
2023/09/06 05:35:52;;;;;;;;;;;;;;;;;;4974835;28;94132;-63
2023/09/06 05:38:17;;;;;;;;;;;;;;;;;;4974400;28;93402;-64
2023/09/06 05:40:43;;;;;;;;;;;;;;;;;;4975540;28;92969;-64
2023/09/06 05:43:08;;;;;;;;;;;;;;;;;;4976516;28;92522;-65
2023/09/06 05:45:34;;;;;;;;;;;;;;;;;;4974870;28;94050;-64
2023/09/06 05:47:59;;;;;;;;;;;;;;;;;;4973984;28;93219;-65
2023/09/06 05:50:26;;;;;;;;;;;;;;;;;;4977317;28;93729;-78
2023/09/06 05:52:52;;;;;;;;;;;;;;;;;;4977542;28;93631;-64
2023/09/06 05:55:17;;;;;;;;;;;;;;;;;;4973930;28;93311;-68
2023/09/06 05:57:42;;;;;;;;;;;;;;;;;;4972013;28;92486;-70
2023/09/06 06:00:12;;;;;;;;;;;;;;;;;;4973118;28;93617;-65
2023/09/06 06:02:38;;;;;;;;;;;;;;;;;;4975888;28;93439;-71
2023/09/06 06:05:03;;;;;;;;;;;;;;;;;;4973786;28;94323;-67
2023/09/06 06:07:28;;;;;;;;;;;;;;;;;;4971738;28;92857;-71
2023/09/06 06:09:54;;;;;;;;;;;;;;;;;;4979071;28;92652;-72
2023/09/06 06:12:22;;;;;;;;;;;;;;;;;;4977534;28;93679;-67
2023/09/06 06:14:48;;;;;;;;;;;;;;;;;;4969840;28;92628;-73
2023/09/06 06:17:13;;;;;;;;;;;;;;;;;;4972117;28;93026;-74
2023/09/06 06:19:38;;;;;;;;;;;;;;;;;;4976145;28;94336;-73
2023/09/06 06:22:04;;;;;;;;;;;;;;;;;;4969890;28;92860;-73
2023/09/06 06:24:30;;;;;;;;;;;;;;;;;;4972380;28;93942;-74
2023/09/06 06:26:56;;;;;;;;;;;;;;;;;;4975964;28;94029;-71
2023/09/06 06:29:22;;;;;;;;;;;;;;;;;;4973837;28;93138;-72
2023/09/06 06:31:47;;;;;;;;;;;;;;;;;;4971059;28;93451;-66
2023/09/06 06:34:14;;;;;;;;;;;;;;;;;;4980159;28;93237;-66
2023/09/06 06:36:39;;;;;;;;;;;;;;;;;;4973879;28;93594;-71
2023/09/06 06:39:04;;;;;;;;;;;;;;;;;;4975460;28;93494;-75
2023/09/06 06:41:30;;;;;;;;;;;;;;;;;;4976214;28;92125;-69
2023/09/06 06:43:56;;;;;;;;;;;;;;;;;;4972108;28;93141;-76
2023/09/06 06:46:26;;;;;;;;;;;;;;;;;;4970177;28;93124;-75
2023/09/06 06:48:51;;;;;;;;;;;;;;;;;;4972242;28;93725;-74
2023/09/06 06:51:16;;;;;;;;;;;;;;;;;;4978680;28;93461;-72
2023/09/06 06:53:42;;;;;;;;;;;;;;;;;;4976981;28;92971;-76
2023/09/06 06:56:07;;;;;;;;;;;;;;;;;;4972145;28;93605;-73
2023/09/06 06:58:32;;;;;;;;;;;;;;;;;;4973518;28;93951;-65
2023/09/06 07:00:59;;;;;;;;;;;;;;;;;;4977405;28;93899;-75
2023/09/06 07:03:24;;;;;;;;;;;;;;;;;;4982652;28;93122;-74
2023/09/06 07:05:49;;;;;;;;;;;;;;;;;;4977607;28;92556;-67
2023/09/06 07:08:14;;;;;;;;;;;;;;;;;;4978096;28;93135;-65
2023/09/06 07:10:40;;;;;;;;;;;;;;;;;;4979627;28;93718;-68
2023/09/06 07:13:05;;;;;;;;;;;;;;;;;;4979828;28;94837;-66
2023/09/06 07:15:30;;;;;;;;;;;;;;;;;;4977802;28;94276;-71
2023/09/06 07:17:55;;;;;;;;;;;;;;;;;;4981639;28;93615;-71
2023/09/06 07:20:20;;;;;;;;;;;;;;;;;;4977781;28;92787;-68
2023/09/06 07:22:46;;;;;;;;;;;;;;;;;;4980451;28;93905;-79
2023/09/06 07:25:13;;;;;;;;;;;;;;;;;;4974760;28;92678;-76
2023/09/06 07:27:38;;;;;;;;;;;;;;;;;;4977778;28;92859;-74
2023/09/06 07:30:04;;;;;;;;;;;;;;;;;;4978431;28;93772;-70
2023/09/06 07:32:29;;;;;;;;;;;;;;;;;;4974495;28;93798;-78
2023/09/06 07:34:55;;;;;;;;;;;;;;;;;;4978911;28;94112;-75
2023/09/06 07:37:20;;;;;;;;;;;;;;;;;;4979268;28;94592;-79
2023/09/06 07:39:45;;;;;;;;;;;;;;;;;;4981931;28;92902;-77
2023/09/06 07:42:11;;;;;;;;;;;;;;;;;;4978272;28;94162;-79
2023/09/06 07:44:36;;;;;;;;;;;;;;;;;;4984801;28;93336;-72
2023/09/06 07:47:02;;;;;;;;;;;;;;;;;;4973347;28;92917;-71
2023/09/06 07:49:30;;;;;;;;;;;;;;;;;;4982348;28;92987;-66
2023/09/06 07:51:55;;;;;;;;;;;;;;;;;;4982463;28;93728;-76
2023/09/06 07:54:23;;;;;;;;;;;;;;;;;;4978192;28;92705;-62
2023/09/06 07:56:49;;;;;;;;;;;;;;;;;;4983866;28;92973;-63
2023/09/06 07:59:20;;;;;;;;;;;;;;;;;;4978946;28;93894;-62
2023/09/06 08:01:45;;;;;;;;;;;;;;;;;;4980534;28;93224;-63
2023/09/06 08:04:10;;;;;;;;;;;;;;;;;;4981739;28;92716;-65
2023/09/06 08:06:35;;;;;;;;;;;;;;;;;;4983310;28;92373;-81
2023/09/06 08:09:01;;;;;;;;;;;;;;;;;;4979795;28;92907;-77
2023/09/06 08:11:26;;;;;;;;;;;;;;;;;;4982129;28;93711;-74
2023/09/06 08:13:52;;;;;;;;;;;;;;;;;;4976301;28;93170;-75
2023/09/06 08:16:19;;;;;;;;;;;;;;;;;;4973482;28;92940;-72
2023/09/06 08:18:46;;;;;;;;;;;;;;;;;;4977192;28;93117;-74
2023/09/06 08:21:11;;;;;;;;;;;;;;;;;;4978883;28;92873;-72
2023/09/06 08:23:36;;;;;;;;;;;;;;;;;;4972627;28;93568;-66
2023/09/06 08:26:03;;;;;;;;;;;;;;;;;;4977811;28;94741;-69
2023/09/06 08:28:29;;;;;;;;;;;;;;;;;;4976733;28;93601;-74
2023/09/06 08:30:54;;;;;;;;;;;;;;;;;;4972670;28;92717;-66
2023/09/06 08:33:19;;;;;;;;;;;;;;;;;;4978433;28;92680;-74
2023/09/06 08:35:44;;;;;;;;;;;;;;;;;;4976640;28;92853;-70
2023/09/06 08:38:10;;;;;;;;;;;;;;;;;;4969461;28;93716;-70
2023/09/06 08:40:35;;;;;;;;;;;;;;;;;;4974891;28;93102;-77
2023/09/06 08:43:02;;;;;;;;;;;;;;;;;;4978175;28;92619;-76
2023/09/06 08:45:29;;;;;;;;;;;;;;;;;;4974554;28;93344;-68
2023/09/06 08:47:54;;;;;;;;;;;;;;;;;;4975243;28;93332;-68
2023/09/06 08:50:19;;;;;;;;;;;;;;;;;;4974900;28;93736;-70
2023/09/06 08:52:45;;;;;;;;;;;;;;;;;;4978362;28;92611;-67
2023/09/06 08:55:11;;;;;;;;;;;;;;;;;;4977242;28;93218;-74
2023/09/06 08:57:40;;;;;;;;;;;;;;;;;;4974774;28;93559;-71
2023/09/06 09:00:11;;;;;;;;;;;;;;;;;;4979519;28;94384;-76
2023/09/06 09:02:37;;;;;;;;;;;;;;;;;;4976116;28;94184;-76
2023/09/06 09:05:05;;;;;;;;;;;;;;;;;;4977809;28;92814;-72
2023/09/06 09:07:31;;;;;;;;;;;;;;;;;;4976768;28;92412;-81
2023/09/06 09:10:02;;;;;;;;;;;;;;;;;;4975025;28;94122;-78
2023/09/06 09:12:28;;;;;;;;;;;;;;;;;;4972228;28;92969;-78
2023/09/06 09:14:56;;;;;;;;;;;;;;;;;;4974560;28;93772;-80
2023/09/06 09:17:23;;;;;;;;;;;;;;;;;;4971542;28;93742;-76
2023/09/06 09:19:52;;;;;;;;;;;;;;;;;;4979592;28;92592;-73
2023/09/06 09:22:24;;;;;;;;;;;;;;;;;;4977069;28;92693;-80
2023/09/06 09:24:49;;;;;;;;;;;;;;;;;;4980862;28;94293;-78
2023/09/06 09:27:18;;;;;;;;;;;;;;;;;;4975747;28;92654;-67
2023/09/06 09:29:44;;;;;;;;;;;;;;;;;;4974331;28;94324;-72
2023/09/06 09:32:11;;;;;;;;;;;;;;;;;;4972305;28;92293;-71
2023/09/06 09:34:36;;;;;;;;;;;;;;;;;;4974930;28;92723;-69
2023/09/06 09:37:01;;;;;;;;;;;;;;;;;;4975827;28;93686;-74
2023/09/06 09:39:27;;;;;;;;;;;;;;;;;;4973661;28;94078;-70
2023/09/06 09:42:01;;;;;;;;;;;;;;;;;;4975800;28;93337;-66
2023/09/06 09:44:26;;;;;;;;;;;;;;;;;;4972379;28;92477;-73
2023/09/06 09:46:54;;;;;;;;;;;;;;;;;;4973787;28;93511;-76
2023/09/06 09:49:20;;;;;;;;;;;;;;;;;;4976605;28;94410;-76
2023/09/06 09:51:48;;;;;;;;;;;;;;;;;;4973492;28;92303;-71
2023/09/06 09:54:15;;;;;;;;;;;;;;;;;;4973112;28;93525;-67
2023/09/06 09:56:41;;;;;;;;;;;;;;;;;;4974965;28;92125;-75
2023/09/06 09:59:08;;;;;;;;;;;;;;;;;;4974223;28;93950;-82
2023/09/06 10:01:36;;;;;;;;;;;;;;;;;;4969620;28;95470;-72
2023/09/06 10:04:05;;;;;;;;;;;;;;;;;;4972909;28;96063;-66
2023/09/06 10:06:32;;;;;;;;;;;;;;;;;;4972161;28;92974;-68
2023/09/06 10:08:58;;;;;;;;;;;;;;;;;;4973706;28;93330;-75
2023/09/06 10:11:24;;;;;;;;;;;;;;;;;;4971659;28;92737;-71
2023/09/06 10:13:50;;;;;;;;;;;;;;;;;;4970922;28;93558;-68
2023/09/06 10:16:15;;;;;;;;;;;;;;;;;;4970003;28;93905;-66
2023/09/06 10:18:41;;;;;;;;;;;;;;;;;;4969858;28;93322;-68
2023/09/06 10:21:06;;;;;;;;;;;;;;;;;;4976180;28;93538;-67
2023/09/06 10:23:34;;;;;;;;;;;;;;;;;;4973703;28;92733;-65
2023/09/06 10:26:01;;;;;;;;;;;;;;;;;;4973480;28;92625;-70
2023/09/06 10:28:31;;;;;;;;;;;;;;;;;;4973117;28;94283;-73
2023/09/06 10:31:07;;;;;;;;;;;;;;;;;;4980379;28;92889;-72
2023/09/06 10:33:47;;;;;;;;;;;;;;;;;;4972585;28;93775;-72
2023/09/06 10:36:13;;;;;;;;;;;;;;;;;;4969845;28;93069;-71
2023/09/06 10:38:58;;;;;;;;;;;;;;;;;;4973664;28;93108;-74
2023/09/06 10:41:25;;;;;;;;;;;;;;;;;;4965401;28;94089;-71
2023/09/06 10:43:55;;;;;;;;;;;;;;;;;;4972893;28;93901;-71
2023/09/06 10:46:24;;;;;;;;;;;;;;;;;;4975696;28;92452;-70
2023/09/06 10:49:08;;;;;;;;;;;;;;;;;;4973306;28;92682;-72
2023/09/06 10:51:33;;;;;;;;;;;;;;;;;;4968595;28;93821;-78
2023/09/06 10:53:58;;;;;;;;;;;;;;;;;;4977445;28;95077;-70
2023/09/06 10:56:27;;;;;;;;;;;;;;;;;;4972752;28;93776;-80
2023/09/06 10:58:55;;;;;;;;;;;;;;;;;;4975279;28;93295;-87
2023/09/06 11:01:21;;;;;;;;;;;;;;;;;;4979470;28;92714;-64
2023/09/06 11:03:58;;;;;;;;;;;;;;;;;;4972534;28;93723;-72
2023/09/06 11:06:24;;;;;;;;;;;;;;;;;;4970526;28;92797;-69
2023/09/06 11:08:50;;;;;;;;;;;;;;;;;;4971622;28;92999;-70
2023/09/06 11:11:15;;;;;;;;;;;;;;;;;;4976021;28;92088;-76
2023/09/06 11:13:42;;;;;;;;;;;;;;;;;;4976438;28;92760;-73
2023/09/06 11:16:14;;;;;;;;;;;;;;;;;;4970352;28;95337;-67
2023/09/06 11:18:43;;;;;;;;;;;;;;;;;;4972776;28;93753;-65
2023/09/06 11:21:09;;;;;;;;;;;;;;;;;;4972006;28;93174;-77
2023/09/06 11:23:47;;;;;;;;;;;;;;;;;;4968415;28;92718;-64
2023/09/06 11:26:13;;;;;;;;;;;;;;;;;;4972577;28;93057;-72
2023/09/06 11:28:40;;;;;;;;;;;;;;;;;;4976018;28;92641;-73
2023/09/06 11:31:18;;;;;;;;;;;;;;;;;;4971445;28;92873;-70
2023/09/06 11:33:44;;;;;;;;;;;;;;;;;;4973923;28;92850;-63
2023/09/06 11:36:11;;;;;;;;;;;;;;;;;;4974172;28;92719;-65
2023/09/06 11:38:40;;;;;;;;;;;;;;;;;;4976483;28;93124;-64
2023/09/06 11:41:08;;;;;;;;;;;;;;;;;;4974440;28;92622;-66
2023/09/06 11:43:35;;;;;;;;;;;;;;;;;;4968095;28;93927;-64
2023/09/06 11:46:03;;;;;;;;;;;;;;;;;;4970717;28;93285;-77
2023/09/06 11:48:31;;;;;;;;;;;;;;;;;;4975803;28;93887;-65
2023/09/06 11:51:08;;;;;;;;;;;;;;;;;;4980286;28;94111;-71
2023/09/06 11:53:36;;;;;;;;;;;;;;;;;;4977134;28;93181;-63
2023/09/06 11:56:05;;;;;;;;;;;;;;;;;;4973440;28;92735;-65
2023/09/06 11:58:30;;;;;;;;;;;;;;;;;;4981652;28;93641;-67
2023/09/06 12:00:56;;;;;;;;;;;;;;;;;;4978390;28;92496;-76
2023/09/06 12:03:27;;;;;;;;;;;;;;;;;;4982041;28;93021;-77
2023/09/06 12:05:55;;;;;;;;;;;;;;;;;;4977107;28;92267;-65
2023/09/06 12:08:21;;;;;;;;;;;;;;;;;;4973001;28;93632;-64
2023/09/06 12:10:50;;;;;;;;;;;;;;;;;;4978245;28;93618;-64
2023/09/06 12:13:17;;;;;;;;;;;;;;;;;;4975916;28;92249;-64
2023/09/06 12:15:43;;;;;;;;;;;;;;;;;;4975389;28;93226;-64
2023/09/06 12:18:08;;;;;;;;;;;;;;;;;;4977532;28;92485;-63
2023/09/06 12:20:34;;;;;;;;;;;;;;;;;;4980932;28;93098;-64
2023/09/06 12:22:59;;;;;;;;;;;;;;;;;;4970016;28;92467;-64
2023/09/06 12:25:24;;;;;;;;;;;;;;;;;;4980516;28;92358;-67
2023/09/06 12:27:49;;;;;;;;;;;;;;;;;;4974579;28;92997;-64
2023/09/06 12:30:18;;;;;;;;;;;;;;;;;;4973888;28;93363;-73
2023/09/06 12:32:44;;;;;;;;;;;;;;;;;;4975567;28;93617;-85
2023/09/06 12:35:10;;;;;;;;;;;;;;;;;;4974870;28;93773;-81
2023/09/06 12:37:36;;;;;;;;;;;;;;;;;;4975654;28;93613;-73
2023/09/06 12:40:09;;;;;;;;;;;;;;;;;;4969856;28;92615;-65
2023/09/06 12:42:35;;;;;;;;;;;;;;;;;;4981577;28;93638;-63
2023/09/06 12:45:04;;;;;;;;;;;;;;;;;;4969938;28;93550;-73
2023/09/06 12:47:29;;;;;;;;;;;;;;;;;;4973374;28;93640;-65
2023/09/06 12:49:55;;;;;;;;;;;;;;;;;;4973774;28;92022;-62
2023/09/06 12:52:21;;;;;;;;;;;;;;;;;;4971156;28;93294;-72
2023/09/06 12:54:47;;;;;;;;;;;;;;;;;;4979229;28;93717;-63
2023/09/06 12:57:12;;;;;;;;;;;;;;;;;;4976064;28;93756;-82
2023/09/06 12:59:38;;;;;;;;;;;;;;;;;;4971691;28;92862;-77
2023/09/06 13:02:04;;;;;;;;;;;;;;;;;;4971914;28;92491;-76
2023/09/06 13:04:30;;;;;;;;;;;;;;;;;;4979485;28;93258;-75
2023/09/06 13:06:55;;;;;;;;;;;;;;;;;;4976406;28;93662;-76
2023/09/06 13:09:20;;;;;;;;;;;;;;;;;;4972309;28;93595;-78
2023/09/06 13:11:45;;;;;;;;;;;;;;;;;;4978098;28;92848;-80
2023/09/06 13:14:11;;;;;;;;;;;;;;;;;;4977444;28;92939;-69
2023/09/06 13:16:37;;;;;;;;;;;;;;;;;;4976454;28;93836;-68
2023/09/06 13:19:02;;;;;;;;;;;;;;;;;;4977505;28;92835;-72
2023/09/06 13:21:29;;;;;;;;;;;;;;;;;;4971834;28;93665;-79
2023/09/06 13:23:54;;;;;;;;;;;;;;;;;;4975686;28;93765;-71
2023/09/06 13:26:19;;;;;;;;;;;;;;;;;;4973271;28;92957;-80
2023/09/06 13:28:45;;;;;;;;;;;;;;;;;;4975008;28;97190;-82
2023/09/06 13:31:10;;;;;;;;;;;;;;;;;;4977728;28;94394;-76
2023/09/06 13:33:36;;;;;;;;;;;;;;;;;;4978026;28;93358;-82
2023/09/06 13:36:03;;;;;;;;;;;;;;;;;;4977438;28;93606;-73
2023/09/06 13:38:29;;;;;;;;;;;;;;;;;;4939970;28;91903;-74
2023/09/06 13:40:54;;;;;;;;;;;;;;;;;;4956878;28;93332;-71
2023/09/06 13:43:19;;;;;;;;;;;;;;;;;;4959495;28;93251;-67
2023/09/06 13:45:45;;;;;;;;;;;;;;;;;;4958529;28;93565;-70
2023/09/06 13:48:10;;;;;;;;;;;;;;;;;;4949944;28;92628;-63
2023/09/06 13:50:35;;;;;;;;;;;;;;;;;;4954882;28;92666;-65
2023/09/06 13:53:00;;;;;;;;;;;;;;;;;;4953075;28;94612;-65
2023/09/06 13:55:25;;;;;;;;;;;;;;;;;;4951401;28;93797;-62
2023/09/06 13:57:51;;;;;;;;;;;;;;;;;;4957629;28;93685;-70
2023/09/06 14:00:16;;;;;;;;;;;;;;;;;;4955621;28;93925;-63
2023/09/06 14:02:41;;;;;;;;;;;;;;;;;;4954028;28;92901;-69
2023/09/06 14:05:07;;;;;;;;;;;;;;;;;;4957254;28;92876;-64
2023/09/06 14:07:32;;;;;;;;;;;;;;;;;;4953724;28;95207;-67
2023/09/06 14:09:58;;;;;;;;;;;;;;;;;;4952107;28;93776;-69
2023/09/06 14:12:23;;;;;;;;;;;;;;;;;;4951115;28;93014;-66
2023/09/06 14:14:48;;;;;;;;;;;;;;;;;;4950820;28;95040;-66
2023/09/06 14:17:14;;;;;;;;;;;;;;;;;;4951525;28;92644;-73
2023/09/06 14:19:39;;;;;;;;;;;;;;;;;;4952762;28;93604;-72
2023/09/06 14:22:09;;;;;;;;;;;;;;;;;;4951509;28;92889;-64
2023/09/06 14:24:34;;;;;;;;;;;;;;;;;;4952380;28;92871;-64
2023/09/06 14:27:00;;;;;;;;;;;;;;;;;;4951276;28;93503;-72
2023/09/06 14:29:25;;;;;;;;;;;;;;;;;;4951633;28;92816;-63
2023/09/06 14:31:52;;;;;;;;;;;;;;;;;;4948183;28;93016;-63
2023/09/06 14:34:17;;;;;;;;;;;;;;;;;;4949935;28;94731;-63
2023/09/06 14:36:43;;;;;;;;;;;;;;;;;;4953957;28;93037;-63
2023/09/06 14:39:08;;;;;;;;;;;;;;;;;;4948056;28;92757;-66
2023/09/06 14:41:33;;;;;;;;;;;;;;;;;;4951082;28;92878;-64
2023/09/06 14:43:58;;;;;;;;;;;;;;;;;;4949968;28;92487;-65
2023/09/06 14:46:24;;;;;;;;;;;;;;;;;;4950996;28;94240;-65
2023/09/06 14:48:49;;;;;;;;;;;;;;;;;;4952387;28;92853;-74
2023/09/06 14:51:14;;;;;;;;;;;;;;;;;;4956936;28;91562;-79
2023/09/06 14:53:39;;;;;;;;;;;;;;;;;;4949204;28;92640;-77
2023/09/06 14:56:06;;;;;;;;;;;;;;;;;;4952364;28;92752;-63
2023/09/06 14:58:31;;;;;;;;;;;;;;;;;;4948161;28;93747;-63
2023/09/06 15:00:56;;;;;;;;;;;;;;;;;;4952171;28;93252;-64
2023/09/06 15:03:24;;;;;;;;;;;;;;;;;;4953063;28;92971;-70
2023/09/06 15:05:50;;;;;;;;;;;;;;;;;;4948010;28;94479;-78
2023/09/06 15:08:15;;;;;;;;;;;;;;;;;;4949005;28;92869;-67
2023/09/06 15:10:40;;;;;;;;;;;;;;;;;;4950245;28;92800;-78
2023/09/06 15:13:07;;;;;;;;;;;;;;;;;;4956328;28;93086;-71
2023/09/06 15:15:33;;;;;;;;;;;;;;;;;;4950894;28;92981;-73
2023/09/06 15:17:59;;;;;;;;;;;;;;;;;;4950275;28;92248;-76
2023/09/06 15:20:24;;;;;;;;;;;;;;;;;;4951500;28;92740;-78
2023/09/06 15:22:50;;;;;;;;;;;;;;;;;;4953272;28;93578;-75
2023/09/06 15:25:15;;;;;;;;;;;;;;;;;;4956500;28;94357;-75
2023/09/06 15:27:40;;;;;;;;;;;;;;;;;;4950747;28;92671;-79
2023/09/06 15:30:07;;;;;;;;;;;;;;;;;;4955478;28;94645;-67
2023/09/06 15:32:32;;;;;;;;;;;;;;;;;;4953514;28;93431;-65
2023/09/06 15:34:58;;;;;;;;;;;;;;;;;;4952667;28;93949;-64
2023/09/06 15:37:25;;;;;;;;;;;;;;;;;;4953972;28;93530;-67
2023/09/06 15:39:50;;;;;;;;;;;;;;;;;;4949970;28;92174;-65
2023/09/06 15:42:15;;;;;;;;;;;;;;;;;;4953856;28;92335;-76
2023/09/06 15:44:40;;;;;;;;;;;;;;;;;;4955309;28;92514;-64
2023/09/06 15:47:06;;;;;;;;;;;;;;;;;;4951054;28;94030;-79
2023/09/06 15:49:31;;;;;;;;;;;;;;;;;;4951995;28;93161;-70
2023/09/06 15:51:56;;;;;;;;;;;;;;;;;;4952760;28;92899;-80
2023/09/06 15:54:22;;;;;;;;;;;;;;;;;;4956954;28;94491;-79
2023/09/06 15:56:51;;;;;;;;;;;;;;;;;;4952823;28;93922;-63
2023/09/06 15:59:16;;;;;;;;;;;;;;;;;;4952152;28;93022;-67
2023/09/06 16:01:42;;;;;;;;;;;;;;;;;;4949933;28;92317;-63
2023/09/06 16:04:07;;;;;;;;;;;;;;;;;;4954248;28;93756;-70
2023/09/06 16:06:33;;;;;;;;;;;;;;;;;;4956805;28;93847;-75
2023/09/06 16:08:58;;;;;;;;;;;;;;;;;;4950974;28;92655;-72
2023/09/06 16:11:24;;;;;;;;;;;;;;;;;;4950275;28;94213;-67
2023/09/06 16:13:49;;;;;;;;;;;;;;;;;;4950782;28;92727;-73
2023/09/06 16:16:14;;;;;;;;;;;;;;;;;;4955059;28;92331;-80
2023/09/06 16:18:41;;;;;;;;;;;;;;;;;;4951666;28;92540;-67
2023/09/06 16:21:06;;;;;;;;;;;;;;;;;;4953615;28;93699;-70
2023/09/06 16:23:32;;;;;;;;;;;;;;;;;;4950613;28;92766;-77
2023/09/06 16:25:57;;;;;;;;;;;;;;;;;;4955937;28;93377;-77
2023/09/06 16:28:22;;;;;;;;;;;;;;;;;;4955285;28;92923;-82
2023/09/06 16:30:47;;;;;;;;;;;;;;;;;;4952967;28;93640;-80
2023/09/06 16:33:13;;;;;;;;;;;;;;;;;;4952276;28;93815;-71
2023/09/06 16:35:38;;;;;;;;;;;;;;;;;;4953568;28;93567;-65
2023/09/06 16:38:06;;;;;;;;;;;;;;;;;;4954678;28;93155;-63
2023/09/06 16:40:32;;;;;;;;;;;;;;;;;;4951161;28;92784;-70